Time;durP1;ratioP1;P1;durP2;ratioP2;P2;SDS_P1;SDS_P2;PMS_P1;PMS_P2;Temp;Humidity;BMP_temperature;BMP_pressure;BME280_temperature;BME280_humidity;BME280_pressure;Samples;Min_cycle;Max_cycle;Signal;HPM_P1;HPM_P2
2023/09/07 00:00:54;;;;;;;6.95;4.82;;;;;;;;;;4909870;29;20025;-81
2023/09/07 00:03:19;;;;;;;9.95;5.30;;;;;;;;;;4909374;29;20032;-81
2023/09/07 00:05:44;;;;;;;6.68;4.88;;;;;;;;;;4908691;29;20032;-81
2023/09/07 00:08:10;;;;;;;8.43;5.05;;;;;;;;;;4908699;29;20063;-81
2023/09/07 00:10:35;;;;;;;7.32;5.47;;;;;;;;;;4914214;29;20449;-81
2023/09/07 00:13:01;;;;;;;7.50;5.95;;;;;;;;;;4910441;29;20040;-81
2023/09/07 00:15:27;;;;;;;7.13;6.18;;;;;;;;;;4908738;29;20037;-81
2023/09/07 00:17:52;;;;;;;7.18;4.55;;;;;;;;;;4909662;29;20044;-81
2023/09/07 00:20:19;;;;;;;8.25;5.70;;;;;;;;;;4907147;29;20037;-80
2023/09/07 00:22:44;;;;;;;8.38;5.53;;;;;;;;;;4909453;29;20040;-80
2023/09/07 00:25:09;;;;;;;7.88;5.25;;;;;;;;;;4909968;29;20409;-80
2023/09/07 00:27:35;;;;;;;9.45;5.95;;;;;;;;;;4907571;29;20028;-81
2023/09/07 00:30:00;;;;;;;8.80;6.85;;;;;;;;;;4909929;29;20087;-81
2023/09/07 00:32:26;;;;;;;8.10;6.13;;;;;;;;;;4924566;29;20088;-81
2023/09/07 00:34:51;;;;;;;8.38;6.38;;;;;;;;;;4909195;29;20036;-80
2023/09/07 00:37:16;;;;;;;10.25;7.70;;;;;;;;;;4909485;29;20040;-81
2023/09/07 00:39:41;;;;;;;8.65;6.70;;;;;;;;;;4911043;29;20068;-79
2023/09/07 00:42:07;;;;;;;8.07;6.30;;;;;;;;;;4893658;29;20130;-80
2023/09/07 00:44:32;;;;;;;8.95;5.93;;;;;;;;;;4906888;29;20074;-80
2023/09/07 00:46:57;;;;;;;7.38;5.95;;;;;;;;;;4909619;29;20055;-80
2023/09/07 00:49:23;;;;;;;8.02;6.57;;;;;;;;;;4909443;29;20453;-80
2023/09/07 00:51:48;;;;;;;9.40;5.72;;;;;;;;;;4916593;29;20028;-80
2023/09/07 00:54:14;;;;;;;6.70;4.53;;;;;;;;;;4907192;29;20386;-80
2023/09/07 00:56:40;;;;;;;6.28;4.50;;;;;;;;;;4909311;29;20039;-80
2023/09/07 00:59:07;;;;;;;6.53;4.57;;;;;;;;;;4915080;29;20028;-80
2023/09/07 01:01:33;;;;;;;4.88;3.72;;;;;;;;;;4907825;29;20032;-81
2023/09/07 01:03:58;;;;;;;5.32;4.18;;;;;;;;;;4909469;29;20092;-80
2023/09/07 01:06:27;;;;;;;6.82;4.20;;;;;;;;;;4907600;29;20029;-80
2023/09/07 01:08:56;;;;;;;10.65;4.88;;;;;;;;;;4907669;29;20074;-80
2023/09/07 01:11:22;;;;;;;6.68;4.20;;;;;;;;;;4891995;29;20083;-81
2023/09/07 01:13:50;;;;;;;6.65;3.83;;;;;;;;;;4925861;29;20060;-80
2023/09/07 01:16:15;;;;;;;6.38;5.00;;;;;;;;;;4916590;29;20035;-80
2023/09/07 01:18:41;;;;;;;6.80;4.70;;;;;;;;;;4906199;29;20045;-81
2023/09/07 01:21:08;;;;;;;8.80;6.10;;;;;;;;;;4916695;29;20416;-81
2023/09/07 01:23:36;;;;;;;8.05;5.70;;;;;;;;;;4914186;29;20188;-81
2023/09/07 01:26:03;;;;;;;9.50;4.85;;;;;;;;;;4921683;29;20032;-80
2023/09/07 01:28:29;;;;;;;5.32;4.15;;;;;;;;;;4910068;29;20068;-80
2023/09/07 01:30:54;;;;;;;7.88;5.15;;;;;;;;;;4908391;29;20080;-81
2023/09/07 01:33:19;;;;;;;7.75;5.10;;;;;;;;;;4910307;29;20066;-80
2023/09/07 01:35:45;;;;;;;8.43;6.00;;;;;;;;;;4914377;29;20037;-81
2023/09/07 01:38:10;;;;;;;8.40;5.13;;;;;;;;;;4911092;29;20028;-80
2023/09/07 01:40:35;;;;;;;10.80;7.03;;;;;;;;;;4907363;29;20119;-81
2023/09/07 01:43:01;;;;;;;8.57;6.15;;;;;;;;;;4908919;29;20036;-80
2023/09/07 01:45:26;;;;;;;8.30;5.78;;;;;;;;;;4892789;29;20029;-81
2023/09/07 01:47:52;;;;;;;8.02;5.85;;;;;;;;;;4911698;29;20028;-81
2023/09/07 01:50:18;;;;;;;6.80;5.47;;;;;;;;;;4918126;29;20404;-81
2023/09/07 01:52:45;;;;;;;8.30;5.07;;;;;;;;;;4927345;29;20064;-80
2023/09/07 01:55:10;;;;;;;7.55;5.55;;;;;;;;;;4919033;29;20046;-81
2023/09/07 01:57:35;;;;;;;7.38;5.57;;;;;;;;;;4919208;29;20501;-81
2023/09/07 02:00:01;;;;;;;8.73;7.30;;;;;;;;;;4894414;29;20032;-81
2023/09/07 02:02:26;;;;;;;7.03;5.50;;;;;;;;;;4925749;29;20032;-81
2023/09/07 02:04:52;;;;;;;7.53;5.70;;;;;;;;;;4911913;29;20064;-81
2023/09/07 02:07:17;;;;;;;8.48;5.93;;;;;;;;;;4926188;29;20111;-80
2023/09/07 02:09:42;;;;;;;9.02;6.38;;;;;;;;;;4911979;29;20082;-80
2023/09/07 02:12:07;;;;;;;8.15;6.43;;;;;;;;;;4913205;29;20024;-81
2023/09/07 02:14:32;;;;;;;8.70;6.90;;;;;;;;;;4910684;29;20047;-81
2023/09/07 02:16:58;;;;;;;8.57;6.28;;;;;;;;;;4910636;29;20032;-81
2023/09/07 02:19:24;;;;;;;9.25;6.22;;;;;;;;;;4911244;29;20111;-81
2023/09/07 02:21:50;;;;;;;9.20;6.85;;;;;;;;;;4912283;29;20440;-81
2023/09/07 02:24:15;;;;;;;9.73;6.78;;;;;;;;;;4915951;29;20043;-81
2023/09/07 02:26:44;;;;;;;7.57;6.13;;;;;;;;;;4919309;29;20041;-81
2023/09/07 02:29:11;;;;;;;7.43;6.07;;;;;;;;;;4910474;29;20088;-80
2023/09/07 02:31:36;;;;;;;9.80;6.07;;;;;;;;;;4919407;29;20028;-81
2023/09/07 02:34:03;;;;;;;7.78;5.80;;;;;;;;;;4909860;29;20057;-80
2023/09/07 02:36:29;;;;;;;8.15;6.10;;;;;;;;;;4912052;29;20024;-81
2023/09/07 02:38:54;;;;;;;8.65;6.65;;;;;;;;;;4923850;29;20452;-81
2023/09/07 02:41:19;;;;;;;8.98;6.15;;;;;;;;;;4919007;29;20040;-81
2023/09/07 02:43:44;;;;;;;11.65;6.88;;;;;;;;;;4912494;29;20042;-80
2023/09/07 02:46:10;;;;;;;7.25;5.90;;;;;;;;;;4913986;29;20477;-81
2023/09/07 02:48:35;;;;;;;8.50;6.55;;;;;;;;;;4919210;29;20491;-80
2023/09/07 02:51:01;;;;;;;8.30;6.80;;;;;;;;;;4908186;29;20321;-81
2023/09/07 02:53:26;;;;;;;9.38;6.60;;;;;;;;;;4918965;29;20036;-81
2023/09/07 02:55:52;;;;;;;10.68;7.40;;;;;;;;;;4909392;29;20124;-80
2023/09/07 02:58:18;;;;;;;8.57;7.18;;;;;;;;;;4919121;29;20046;-81
2023/09/07 03:00:47;;;;;;;7.78;6.82;;;;;;;;;;4909134;29;20036;-80
2023/09/07 03:03:14;;;;;;;9.07;7.57;;;;;;;;;;4918158;29;20055;-80
2023/09/07 03:05:40;;;;;;;11.07;7.57;;;;;;;;;;4909293;29;20032;-81
2023/09/07 03:08:06;;;;;;;10.50;7.85;;;;;;;;;;4894279;29;20032;-81
2023/09/07 03:10:32;;;;;;;8.95;7.28;;;;;;;;;;4910355;29;20533;-80
2023/09/07 03:12:57;;;;;;;9.15;7.95;;;;;;;;;;4928176;29;20087;-81
2023/09/07 03:15:22;;;;;;;9.63;7.90;;;;;;;;;;4909749;29;20029;-81
2023/09/07 03:17:48;;;;;;;9.60;8.15;;;;;;;;;;4910376;29;20036;-80
2023/09/07 03:20:13;;;;;;;10.90;8.93;;;;;;;;;;4928463;29;20064;-81
2023/09/07 03:22:41;;;;;;;12.43;10.38;;;;;;;;;;4900743;29;20426;-81
2023/09/07 03:25:08;;;;;;;11.30;9.07;;;;;;;;;;4923406;29;20064;-81
2023/09/07 03:27:34;;;;;;;12.15;9.88;;;;;;;;;;4908471;29;20025;-81
2023/09/07 03:29:59;;;;;;;10.93;9.00;;;;;;;;;;4910730;29;20649;-81
2023/09/07 03:32:26;;;;;;;11.77;9.10;;;;;;;;;;4910315;29;20060;-81
2023/09/07 03:34:52;;;;;;;13.65;9.45;;;;;;;;;;4913009;29;20043;-81
2023/09/07 03:37:17;;;;;;;11.25;8.73;;;;;;;;;;4912706;29;20027;-81
2023/09/07 03:39:42;;;;;;;11.88;8.40;;;;;;;;;;4908117;29;20064;-81
2023/09/07 03:42:07;;;;;;;13.02;9.35;;;;;;;;;;4929570;29;20036;-81
2023/09/07 03:44:33;;;;;;;10.38;7.90;;;;;;;;;;4913735;29;20047;-81
2023/09/07 03:46:58;;;;;;;11.63;9.23;;;;;;;;;;4914300;29;20544;-80
2023/09/07 03:49:23;;;;;;;10.98;8.25;;;;;;;;;;4913430;29;20528;-81
2023/09/07 03:51:48;;;;;;;12.40;9.25;;;;;;;;;;4924276;29;20080;-80
2023/09/07 03:54:14;;;;;;;11.85;9.30;;;;;;;;;;4911500;29;20068;-81
2023/09/07 03:56:39;;;;;;;11.00;8.85;;;;;;;;;;4911727;29;20512;-81
2023/09/07 03:59:06;;;;;;;10.70;7.70;;;;;;;;;;4910059;29;20036;-80
2023/09/07 04:01:31;;;;;;;9.82;7.53;;;;;;;;;;4912284;29;20036;-80
2023/09/07 04:03:57;;;;;;;10.23;7.10;;;;;;;;;;4912761;29;20044;-81
2023/09/07 04:06:23;;;;;;;9.80;7.45;;;;;;;;;;4911055;29;20095;-81
2023/09/07 04:08:49;;;;;;;9.85;8.18;;;;;;;;;;4910777;29;20499;-80
2023/09/07 04:11:14;;;;;;;11.82;9.07;;;;;;;;;;4907622;29;20096;-81
2023/09/07 04:13:39;;;;;;;13.13;8.68;;;;;;;;;;4916852;29;20043;-79
2023/09/07 04:16:04;;;;;;;11.80;9.05;;;;;;;;;;4912809;29;20115;-80
2023/09/07 04:18:30;;;;;;;13.43;8.93;;;;;;;;;;4911361;29;20036;-81
2023/09/07 04:21:04;;;;;;;14.32;8.55;;;;;;;;;;4914439;29;20115;-81
2023/09/07 04:23:29;;;;;;;13.77;9.77;;;;;;;;;;4911856;29;20038;-81
2023/09/07 04:26:03;;;;;;;12.88;9.77;;;;;;;;;;4898017;29;20512;-81
2023/09/07 04:28:28;;;;;;;13.35;10.07;;;;;;;;;;4921207;29;20083;-81
2023/09/07 04:30:53;;;;;;;14.23;11.02;;;;;;;;;;4907560;29;20025;-80
2023/09/07 04:33:19;;;;;;;10.93;9.23;;;;;;;;;;4923685;29;20433;-81
2023/09/07 04:35:44;;;;;;;12.40;9.15;;;;;;;;;;4915089;29;20225;-81
2023/09/07 04:38:10;;;;;;;14.73;10.23;;;;;;;;;;4912881;29;20489;-80
2023/09/07 04:40:36;;;;;;;10.52;8.48;;;;;;;;;;4913803;29;20043;-81
2023/09/07 04:43:02;;;;;;;10.95;9.30;;;;;;;;;;4910742;29;20036;-81
2023/09/07 04:45:27;;;;;;;15.07;9.18;;;;;;;;;;4912101;29;20523;-81
2023/09/07 04:47:52;;;;;;;11.98;9.20;;;;;;;;;;4912649;29;20469;-81
2023/09/07 04:50:18;;;;;;;12.75;9.00;;;;;;;;;;4897237;29;20028;-81
2023/09/07 04:52:43;;;;;;;12.85;9.73;;;;;;;;;;4915191;29;20115;-80
2023/09/07 04:55:08;;;;;;;9.52;8.45;;;;;;;;;;4911885;29;20052;-81
2023/09/07 04:57:35;;;;;;;11.75;9.32;;;;;;;;;;4896336;29;20119;-80
2023/09/07 05:00:03;;;;;;;10.75;8.43;;;;;;;;;;4894078;29;20033;-81
2023/09/07 05:02:28;;;;;;;11.05;8.55;;;;;;;;;;4914868;29;20489;-80
2023/09/07 05:04:53;;;;;;;9.90;7.82;;;;;;;;;;4911804;29;20032;-80
2023/09/07 05:07:19;;;;;;;8.80;7.28;;;;;;;;;;4907506;29;20028;-80
2023/09/07 05:09:44;;;;;;;10.57;7.80;;;;;;;;;;4913043;29;20036;-80
2023/09/07 05:12:10;;;;;;;10.45;9.20;;;;;;;;;;4895327;29;20555;-80
2023/09/07 05:14:36;;;;;;;10.85;9.25;;;;;;;;;;4914107;29;20111;-80
2023/09/07 05:17:01;;;;;;;14.93;10.70;;;;;;;;;;4913675;29;20461;-81
2023/09/07 05:19:26;;;;;;;12.13;10.38;;;;;;;;;;4916754;29;20118;-80
2023/09/07 05:21:52;;;;;;;12.48;9.80;;;;;;;;;;4915070;29;20107;-81
2023/09/07 05:24:17;;;;;;;11.80;9.63;;;;;;;;;;4922583;29;20057;-80
2023/09/07 05:26:43;;;;;;;11.63;9.98;;;;;;;;;;4917804;29;20392;-81
2023/09/07 05:29:09;;;;;;;16.25;10.43;;;;;;;;;;4914546;29;20040;-81
2023/09/07 05:31:34;;;;;;;13.13;10.98;;;;;;;;;;4916183;29;20033;-80
2023/09/07 05:34:00;;;;;;;13.10;10.57;;;;;;;;;;4918559;29;20028;-81
2023/09/07 05:36:27;;;;;;;11.43;9.15;;;;;;;;;;4924508;29;20042;-81
2023/09/07 05:38:52;;;;;;;12.52;9.23;;;;;;;;;;4911607;29;20505;-80
2023/09/07 05:41:17;;;;;;;11.30;9.40;;;;;;;;;;4926044;29;20119;-81
2023/09/07 05:43:42;;;;;;;11.10;9.25;;;;;;;;;;4911911;29;20043;-81
2023/09/07 05:46:08;;;;;;;11.25;9.93;;;;;;;;;;4900109;29;20058;-81
2023/09/07 05:48:33;;;;;;;12.82;10.98;;;;;;;;;;4922171;29;20058;-81
2023/09/07 05:50:58;;;;;;;10.07;6.90;;;;;;;;;;4913970;29;20029;-80
2023/09/07 05:53:27;;;;;;;11.25;7.43;;;;;;;;;;4915827;29;20209;-81
2023/09/07 05:55:52;;;;;;;9.77;7.45;;;;;;;;;;4913398;29;20024;-81
2023/09/07 05:58:18;;;;;;;13.05;7.75;;;;;;;;;;4913813;29;20028;-81
2023/09/07 06:00:43;;;;;;;16.33;9.80;;;;;;;;;;4915693;29;20414;-80
2023/09/07 06:03:09;;;;;;;11.98;9.70;;;;;;;;;;4914412;29;20532;-80
2023/09/07 06:05:39;;;;;;;10.70;8.68;;;;;;;;;;4904230;29;20024;-80
2023/09/07 06:08:06;;;;;;;12.35;9.43;;;;;;;;;;4914625;29;20570;-80
2023/09/07 06:10:31;;;;;;;11.82;9.13;;;;;;;;;;4912515;29;20024;-81
2023/09/07 06:12:58;;;;;;;11.68;8.50;;;;;;;;;;4908777;29;20487;-81
2023/09/07 06:15:24;;;;;;;12.77;10.40;;;;;;;;;;4911840;29;20032;-81
2023/09/07 06:17:49;;;;;;;11.73;10.23;;;;;;;;;;4912729;29;20382;-79
2023/09/07 06:20:15;;;;;;;11.35;10.02;;;;;;;;;;4921623;29;20024;-81
2023/09/07 06:22:40;;;;;;;13.52;11.50;;;;;;;;;;4915107;29;20024;-80
2023/09/07 06:25:06;;;;;;;14.63;10.95;;;;;;;;;;4912999;29;20032;-80
2023/09/07 06:27:31;;;;;;;15.77;12.25;;;;;;;;;;4896206;29;20051;-81
2023/09/07 06:29:56;;;;;;;13.38;11.38;;;;;;;;;;4932224;29;20511;-81
2023/09/07 06:32:22;;;;;;;16.58;13.82;;;;;;;;;;4917327;29;20079;-81
2023/09/07 06:34:47;;;;;;;16.63;14.57;;;;;;;;;;4921308;29;20032;-81
2023/09/07 06:37:13;;;;;;;15.40;12.15;;;;;;;;;;4898802;29;20504;-80
2023/09/07 06:39:39;;;;;;;15.43;13.60;;;;;;;;;;4913042;29;20043;-80
2023/09/07 06:42:04;;;;;;;16.98;14.50;;;;;;;;;;4911243;29;20561;-81
2023/09/07 06:44:36;;;;;;;14.00;12.02;;;;;;;;;;4896955;29;20028;-81
2023/09/07 06:47:02;;;;;;;15.15;12.68;;;;;;;;;;4912591;29;20108;-81
2023/09/07 06:49:29;;;;;;;15.75;11.98;;;;;;;;;;4907960;29;20029;-81
2023/09/07 06:51:58;;;;;;;14.75;11.57;;;;;;;;;;4919808;29;20059;-81
2023/09/07 06:54:23;;;;;;;14.52;11.25;;;;;;;;;;4911574;29;20028;-81
2023/09/07 06:56:49;;;;;;;14.48;11.25;;;;;;;;;;4911296;29;20076;-79
2023/09/07 06:59:14;;;;;;;14.15;12.20;;;;;;;;;;4911961;29;20028;-81
2023/09/07 07:01:39;;;;;;;13.27;11.48;;;;;;;;;;4909244;29;20044;-81
2023/09/07 07:04:05;;;;;;;12.25;10.98;;;;;;;;;;4911706;29;20047;-81
2023/09/07 07:06:30;;;;;;;14.13;11.68;;;;;;;;;;4917772;29;20036;-81
2023/09/07 07:08:55;;;;;;;14.85;13.10;;;;;;;;;;4911704;29;20032;-80
2023/09/07 07:11:20;;;;;;;15.30;13.70;;;;;;;;;;4908159;29;20036;-81
2023/09/07 07:13:46;;;;;;;12.30;10.43;;;;;;;;;;4917880;29;20040;-81
2023/09/07 07:16:11;;;;;;;17.85;14.00;;;;;;;;;;4916873;29;20040;-80
2023/09/07 07:18:37;;;;;;;22.52;14.23;;;;;;;;;;4911222;29;20064;-81
2023/09/07 07:21:02;;;;;;;17.90;14.73;;;;;;;;;;4911017;29;20135;-81
2023/09/07 07:23:28;;;;;;;16.70;12.77;;;;;;;;;;4893445;29;20168;-81
2023/09/07 07:25:53;;;;;;;13.10;11.65;;;;;;;;;;4908995;29;20075;-81
2023/09/07 07:28:18;;;;;;;14.50;11.30;;;;;;;;;;4909297;29;20103;-81
2023/09/07 07:30:44;;;;;;;14.63;11.30;;;;;;;;;;4910556;29;20040;-80
2023/09/07 07:33:11;;;;;;;21.55;11.20;;;;;;;;;;4911725;29;20024;-81
2023/09/07 07:35:37;;;;;;;12.95;10.77;;;;;;;;;;4913150;29;20485;-81
2023/09/07 07:38:03;;;;;;;12.90;9.45;;;;;;;;;;4910964;29;20519;-81
2023/09/07 07:40:30;;;;;;;13.55;10.02;;;;;;;;;;4916932;29;20029;-81
2023/09/07 07:42:55;;;;;;;9.13;7.65;;;;;;;;;;4915182;29;20032;-81
2023/09/07 07:45:21;;;;;;;11.02;8.77;;;;;;;;;;4909558;29;20040;-81
2023/09/07 07:47:48;;;;;;;11.65;9.38;;;;;;;;;;4914105;29;20029;-81
2023/09/07 07:50:14;;;;;;;11.45;9.52;;;;;;;;;;4914615;29;20044;-81
2023/09/07 07:52:40;;;;;;;13.10;9.38;;;;;;;;;;4910157;29;20028;-81
2023/09/07 07:55:06;;;;;;;9.48;7.72;;;;;;;;;;4900420;29;20429;-79
2023/09/07 07:57:31;;;;;;;10.95;8.32;;;;;;;;;;4894612;29;20040;-81
2023/09/07 07:59:57;;;;;;;10.73;8.48;;;;;;;;;;4914654;29;20035;-81
2023/09/07 08:02:22;;;;;;;11.27;8.75;;;;;;;;;;4910423;29;20143;-81
2023/09/07 08:04:48;;;;;;;9.68;7.55;;;;;;;;;;4926710;29;20039;-81
2023/09/07 08:07:13;;;;;;;11.65;9.65;;;;;;;;;;4914563;29;20043;-81
2023/09/07 08:09:39;;;;;;;12.15;10.15;;;;;;;;;;4910555;29;20032;-81
2023/09/07 08:12:07;;;;;;;10.77;8.35;;;;;;;;;;4914134;29;20028;-81
2023/09/07 08:14:34;;;;;;;12.30;9.48;;;;;;;;;;4909258;29;20032;-81
2023/09/07 08:17:01;;;;;;;12.45;9.88;;;;;;;;;;4915691;29;20062;-81
2023/09/07 08:19:27;;;;;;;11.68;10.25;;;;;;;;;;4908693;29;20461;-81
2023/09/07 08:21:53;;;;;;;11.95;9.18;;;;;;;;;;4915642;29;20032;-81
2023/09/07 08:24:18;;;;;;;12.88;7.85;;;;;;;;;;4913065;29;20156;-81
2023/09/07 08:26:44;;;;;;;8.23;5.68;;;;;;;;;;4908208;29;20036;-81
2023/09/07 08:29:10;;;;;;;12.48;7.43;;;;;;;;;;4907316;29;20036;-81
2023/09/07 08:31:38;;;;;;;10.70;9.00;;;;;;;;;;4908617;29;20588;-81
2023/09/07 08:34:04;;;;;;;12.23;9.57;;;;;;;;;;4909714;29;20033;-81
2023/09/07 08:36:32;;;;;;;9.52;8.32;;;;;;;;;;4912368;29;20040;-81
2023/09/07 08:38:59;;;;;;;12.23;8.88;;;;;;;;;;4909584;29;20036;-81
2023/09/07 08:41:25;;;;;;;9.82;6.55;;;;;;;;;;4908697;29;20500;-81
2023/09/07 08:43:52;;;;;;;10.63;8.57;;;;;;;;;;4910601;29;20032;-81
2023/09/07 08:46:20;;;;;;;10.70;7.18;;;;;;;;;;4906397;29;20489;-81
2023/09/07 08:48:46;;;;;;;10.98;8.30;;;;;;;;;;4907034;29;20040;-81
2023/09/07 08:51:12;;;;;;;11.63;9.05;;;;;;;;;;4910362;29;20416;-81
2023/09/07 08:53:38;;;;;;;10.57;7.78;;;;;;;;;;4909467;29;20103;-81
2023/09/07 08:56:04;;;;;;;9.95;7.90;;;;;;;;;;4910993;29;20508;-81
2023/09/07 08:58:31;;;;;;;10.55;7.95;;;;;;;;;;4907482;29;20040;-81
2023/09/07 09:00:57;;;;;;;9.73;8.73;;;;;;;;;;4899962;29;20051;-80
2023/09/07 09:03:22;;;;;;;10.00;9.00;;;;;;;;;;4911514;29;20023;-80
2023/09/07 09:05:49;;;;;;;8.45;7.00;;;;;;;;;;4911572;29;20028;-81
2023/09/07 09:08:20;;;;;;;11.82;8.80;;;;;;;;;;4909064;29;20083;-80
2023/09/07 09:10:45;;;;;;;13.68;8.13;;;;;;;;;;4900125;29;20032;-80
2023/09/07 09:13:11;;;;;;;9.38;7.15;;;;;;;;;;4909601;29;20059;-81
2023/09/07 09:15:36;;;;;;;8.82;5.72;;;;;;;;;;4909943;29;20071;-81
2023/09/07 09:18:12;;;;;;;8.93;7.55;;;;;;;;;;4900481;29;20033;-81
2023/09/07 09:20:38;;;;;;;6.80;5.30;;;;;;;;;;4905459;29;20138;-80
2023/09/07 09:23:04;;;;;;;8.43;7.15;;;;;;;;;;4909974;29;20141;-80
2023/09/07 09:25:31;;;;;;;9.02;6.45;;;;;;;;;;4905966;29;20045;-80
2023/09/07 09:27:56;;;;;;;8.48;6.65;;;;;;;;;;4912411;29;20028;-81
2023/09/07 09:30:21;;;;;;;10.63;7.07;;;;;;;;;;4906116;29;20119;-80
2023/09/07 09:32:46;;;;;;;8.40;7.27;;;;;;;;;;4907930;29;20363;-81
2023/09/07 09:35:11;;;;;;;6.72;4.97;;;;;;;;;;4910580;29;20700;-81
2023/09/07 09:37:43;;;;;;;7.95;6.85;;;;;;;;;;4911110;29;20048;-81
2023/09/07 09:40:10;;;;;;;8.68;5.57;;;;;;;;;;4908621;29;20047;-81
2023/09/07 09:42:35;;;;;;;8.65;6.95;;;;;;;;;;4907119;29;20037;-81
2023/09/07 09:45:01;;;;;;;8.75;7.05;;;;;;;;;;4906725;29;20064;-81
2023/09/07 09:47:28;;;;;;;7.65;6.82;;;;;;;;;;4909911;29;20036;-81
2023/09/07 09:49:53;;;;;;;8.75;6.88;;;;;;;;;;4910932;29;20047;-80
2023/09/07 09:52:19;;;;;;;8.00;5.15;;;;;;;;;;4906227;29;20043;-81
2023/09/07 09:54:45;;;;;;;6.43;5.07;;;;;;;;;;4909238;29;20040;-81
2023/09/07 09:57:10;;;;;;;6.60;5.55;;;;;;;;;;4906663;29;20028;-81
2023/09/07 09:59:35;;;;;;;9.30;7.20;;;;;;;;;;4909606;29;20036;-81
2023/09/07 10:02:02;;;;;;;7.85;6.60;;;;;;;;;;4905244;29;20289;-81
2023/09/07 10:04:29;;;;;;;7.95;6.38;;;;;;;;;;4908979;29;20568;-81
2023/09/07 10:06:55;;;;;;;9.52;6.53;;;;;;;;;;4912708;29;20036;-81
2023/09/07 10:09:20;;;;;;;8.60;5.75;;;;;;;;;;4913060;29;20520;-81
2023/09/07 10:11:50;;;;;;;7.88;4.72;;;;;;;;;;4907967;29;20040;-80
2023/09/07 10:14:16;;;;;;;8.38;6.60;;;;;;;;;;4909588;29;20060;-80
2023/09/07 10:16:45;;;;;;;9.07;6.43;;;;;;;;;;4911320;29;20411;-81
2023/09/07 10:19:17;;;;;;;10.32;6.28;;;;;;;;;;4910715;29;20289;-81
2023/09/07 10:21:42;;;;;;;7.80;6.30;;;;;;;;;;4915502;29;20032;-80
2023/09/07 10:24:07;;;;;;;6.68;5.10;;;;;;;;;;4911525;29;20051;-81
2023/09/07 10:26:33;;;;;;;8.45;6.65;;;;;;;;;;4911962;29;20044;-81
2023/09/07 10:28:58;;;;;;;15.70;8.40;;;;;;;;;;4909262;29;20127;-80
2023/09/07 10:31:24;;;;;;;15.00;9.25;;;;;;;;;;4912553;29;20335;-81
2023/09/07 10:33:50;;;;;;;11.60;8.95;;;;;;;;;;4918607;29;20037;-81
2023/09/07 10:36:22;;;;;;;10.90;8.27;;;;;;;;;;4910833;29;20035;-81
2023/09/07 10:38:47;;;;;;;8.35;7.10;;;;;;;;;;4918610;29;20280;-81
2023/09/07 10:41:13;;;;;;;10.13;7.03;;;;;;;;;;4908897;29;20036;-81
2023/09/07 10:43:46;;;;;;;8.43;6.13;;;;;;;;;;4898239;29;20027;-81
2023/09/07 10:46:11;;;;;;;11.27;5.32;;;;;;;;;;4910244;29;20056;-81
2023/09/07 10:48:36;;;;;;;11.63;7.50;;;;;;;;;;4911283;29;20090;-80
2023/09/07 10:51:02;;;;;;;10.07;7.17;;;;;;;;;;4908339;29;20044;-81
2023/09/07 10:53:28;;;;;;;8.75;6.45;;;;;;;;;;4914541;29;20311;-81
2023/09/07 10:55:55;;;;;;;8.65;6.22;;;;;;;;;;4911729;29;20028;-81
2023/09/07 10:58:27;;;;;;;11.95;7.38;;;;;;;;;;4909726;29;20040;-81
2023/09/07 11:00:53;;;;;;;9.13;6.60;;;;;;;;;;4909552;29;20063;-80
2023/09/07 11:03:18;;;;;;;7.68;6.10;;;;;;;;;;4909659;29;20505;-81
2023/09/07 11:05:44;;;;;;;9.10;6.53;;;;;;;;;;4911712;29;20032;-81
2023/09/07 11:08:09;;;;;;;13.25;7.43;;;;;;;;;;4911637;29;20318;-81
2023/09/07 11:10:34;;;;;;;9.37;6.60;;;;;;;;;;4909594;29;20028;-81
2023/09/07 11:13:04;;;;;;;8.15;6.68;;;;;;;;;;4911832;29;20284;-81
2023/09/07 11:15:29;;;;;;;8.75;6.63;;;;;;;;;;4911073;29;20515;-81
2023/09/07 11:17:54;;;;;;;10.00;7.00;;;;;;;;;;4911759;29;20099;-80
2023/09/07 11:20:21;;;;;;;8.63;6.30;;;;;;;;;;4919025;29;20043;-81
2023/09/07 11:22:46;;;;;;;8.40;5.93;;;;;;;;;;4923352;29;20332;-81
2023/09/07 11:25:11;;;;;;;9.18;6.43;;;;;;;;;;4912341;29;20040;-81
2023/09/07 11:27:39;;;;;;;10.67;6.90;;;;;;;;;;4912776;29;20039;-80
2023/09/07 11:30:07;;;;;;;11.25;6.63;;;;;;;;;;4911805;29;20060;-81
2023/09/07 11:32:34;;;;;;;9.48;6.30;;;;;;;;;;4893017;29;20126;-81
2023/09/07 11:34:59;;;;;;;6.90;5.55;;;;;;;;;;4912064;29;20119;-81
2023/09/07 11:37:25;;;;;;;11.27;7.35;;;;;;;;;;4924071;29;20125;-81
2023/09/07 11:39:50;;;;;;;10.57;6.82;;;;;;;;;;4910654;29;20300;-81
2023/09/07 11:42:16;;;;;;;8.27;5.93;;;;;;;;;;4910461;29;20036;-81
2023/09/07 11:44:41;;;;;;;8.83;6.13;;;;;;;;;;4910048;29;20284;-80
2023/09/07 11:47:06;;;;;;;8.10;6.10;;;;;;;;;;4911731;29;20344;-80
2023/09/07 11:49:32;;;;;;;7.43;5.40;;;;;;;;;;4909503;29;20095;-81
2023/09/07 11:51:57;;;;;;;7.50;5.85;;;;;;;;;;4908141;29;20054;-81
2023/09/07 11:54:22;;;;;;;8.50;6.43;;;;;;;;;;4896203;29;20028;-82
2023/09/07 11:56:48;;;;;;;8.48;6.90;;;;;;;;;;4910531;29;20029;-81
2023/09/07 11:59:13;;;;;;;9.15;6.47;;;;;;;;;;4916150;29;20566;-81
2023/09/07 12:01:39;;;;;;;7.53;5.33;;;;;;;;;;4908129;29;20128;-81
2023/09/07 12:04:05;;;;;;;6.22;3.88;;;;;;;;;;4925430;29;20094;-81
2023/09/07 12:06:30;;;;;;;9.65;5.95;;;;;;;;;;4913211;29;20092;-81
2023/09/07 12:09:00;;;;;;;9.60;6.23;;;;;;;;;;4924656;29;20393;-81
2023/09/07 12:11:25;;;;;;;7.00;5.90;;;;;;;;;;4908522;29;20292;-81
2023/09/07 12:13:50;;;;;;;7.85;6.18;;;;;;;;;;4909941;29;20038;-82
2023/09/07 12:16:15;;;;;;;8.80;5.20;;;;;;;;;;4909882;29;20039;-81
2023/09/07 12:18:41;;;;;;;7.33;5.03;;;;;;;;;;4909778;29;20284;-81
2023/09/07 12:21:06;;;;;;;8.60;5.20;;;;;;;;;;4919948;29;20401;-81
2023/09/07 12:23:32;;;;;;;9.25;6.03;;;;;;;;;;4922511;29;20051;-81
2023/09/07 12:25:57;;;;;;;6.77;5.03;;;;;;;;;;4911222;29;20043;-82
2023/09/07 12:28:22;;;;;;;8.97;6.20;;;;;;;;;;4913199;29;20044;-82
2023/09/07 12:30:48;;;;;;;8.27;5.20;;;;;;;;;;4910300;29;20043;-82
2023/09/07 12:33:14;;;;;;;7.45;5.75;;;;;;;;;;4905878;29;20281;-81
2023/09/07 12:35:39;;;;;;;8.33;5.57;;;;;;;;;;4917247;29;20042;-81
2023/09/07 12:38:04;;;;;;;7.68;5.15;;;;;;;;;;4910332;29;20309;-81
2023/09/07 12:40:29;;;;;;;8.85;6.05;;;;;;;;;;4909431;29;20609;-81
2023/09/07 12:42:55;;;;;;;10.27;4.27;;;;;;;;;;4925176;29;20056;-81
2023/09/07 12:45:20;;;;;;;9.23;5.33;;;;;;;;;;4909338;29;20032;-81
2023/09/07 12:47:45;;;;;;;7.63;5.93;;;;;;;;;;4905502;29;20276;-82
2023/09/07 12:50:10;;;;;;;9.63;5.93;;;;;;;;;;4911179;29;20304;-82
2023/09/07 12:52:37;;;;;;;7.80;5.88;;;;;;;;;;4908947;29;20032;-81
2023/09/07 12:55:03;;;;;;;9.77;6.45;;;;;;;;;;4907479;29;20036;-80
2023/09/07 12:57:28;;;;;;;8.63;6.13;;;;;;;;;;4909863;29;20032;-81
2023/09/07 12:59:53;;;;;;;7.83;5.50;;;;;;;;;;4916488;29;20051;-81
2023/09/07 13:02:18;;;;;;;6.53;5.20;;;;;;;;;;4907420;29;20363;-81
2023/09/07 13:04:44;;;;;;;6.70;5.20;;;;;;;;;;4907660;29;20408;-82
2023/09/07 13:07:09;;;;;;;6.67;5.17;;;;;;;;;;4909597;29;20288;-82
2023/09/07 13:09:34;;;;;;;7.60;5.00;;;;;;;;;;4907721;29;20025;-80
2023/09/07 13:11:59;;;;;;;5.83;4.60;;;;;;;;;;4909074;29;20385;-81
2023/09/07 13:14:24;;;;;;;6.00;4.60;;;;;;;;;;4906323;29;20489;-81
2023/09/07 13:16:51;;;;;;;8.90;5.30;;;;;;;;;;4910389;29;20413;-82
2023/09/07 13:19:16;;;;;;;5.25;4.18;;;;;;;;;;4908139;29;20071;-82
2023/09/07 13:21:41;;;;;;;5.72;4.43;;;;;;;;;;4909494;29;20052;-82
2023/09/07 13:24:06;;;;;;;6.63;4.60;;;;;;;;;;4909032;29;20512;-81
2023/09/07 13:26:32;;;;;;;7.90;4.50;;;;;;;;;;4891101;29;20153;-82
2023/09/07 13:28:57;;;;;;;7.32;4.50;;;;;;;;;;4909798;29;20299;-82
2023/09/07 13:31:23;;;;;;;5.73;3.67;;;;;;;;;;4923082;29;20034;-82
2023/09/07 13:33:49;;;;;;;5.90;4.10;;;;;;;;;;4909948;29;20279;-82
2023/09/07 13:36:14;;;;;;;5.70;4.43;;;;;;;;;;4908156;29;20371;-82
2023/09/07 13:38:41;;;;;;;6.80;4.07;;;;;;;;;;4908733;29;20036;-82
2023/09/07 13:41:06;;;;;;;8.00;4.60;;;;;;;;;;4912093;29;20028;-82
2023/09/07 13:43:31;;;;;;;6.63;4.67;;;;;;;;;;4912510;29;20036;-81
2023/09/07 13:45:56;;;;;;;4.75;3.92;;;;;;;;;;4926525;29;20198;-81
2023/09/07 13:48:22;;;;;;;7.70;5.00;;;;;;;;;;4916102;29;20536;-82
2023/09/07 13:50:48;;;;;;;8.37;5.50;;;;;;;;;;4910363;29;20291;-82
2023/09/07 13:53:13;;;;;;;8.20;5.30;;;;;;;;;;4913409;29;20268;-82
2023/09/07 13:55:39;;;;;;;8.93;4.57;;;;;;;;;;4919555;29;20040;-81
2023/09/07 13:58:05;;;;;;;5.97;4.15;;;;;;;;;;4910551;29;20280;-81
2023/09/07 14:00:30;;;;;;;5.78;4.57;;;;;;;;;;4912973;29;20036;-82
2023/09/07 14:02:55;;;;;;;6.40;4.50;;;;;;;;;;4914572;29;20024;-79
2023/09/07 14:05:21;;;;;;;5.37;3.47;;;;;;;;;;4913808;29;20040;-79
2023/09/07 14:07:46;;;;;;;6.67;5.00;;;;;;;;;;4910383;29;20052;-79
2023/09/07 14:10:11;;;;;;;6.63;4.43;;;;;;;;;;4895669;29;20811;-79
2023/09/07 14:12:36;;;;;;;5.13;3.37;;;;;;;;;;4908885;29;20029;-80
2023/09/07 14:15:02;;;;;;;6.40;4.83;;;;;;;;;;4913688;29;20036;-80
2023/09/07 14:17:27;;;;;;;7.88;4.97;;;;;;;;;;4912698;29;20035;-79
2023/09/07 14:19:52;;;;;;;5.63;3.97;;;;;;;;;;4909195;29;20104;-79
2023/09/07 14:22:17;;;;;;;5.40;4.30;;;;;;;;;;4912319;29;20119;-79
2023/09/07 14:24:43;;;;;;;5.00;3.77;;;;;;;;;;4909694;29;20043;-80
2023/09/07 14:27:08;;;;;;;4.73;4.03;;;;;;;;;;4912961;29;20295;-79